FL67 weather

Evans Properties Inc Airport
Fort Pierce, Florida, United States

Public forecast

Using degrees Fahrenheit for public forecast. Weather courtesy of forecast.io.

Closest aviation weather report (METAR) to Evans Properties Inc Airport

Closest report is Okeechobee County Airport, 14.1 nm (26.1 km) W. Retrieved 2019/10/23 13:35 UTC (24 minutes ago):

KOBE 231335Z AUTO 36005KT 10SM BKN009 BKN015 24/22 A3003 RMK AO2

Closest aviation forecast (TAF) to Evans Properties Inc Airport

Closest forecast is St Lucie County International Airport, 17.5 nm (32.3 km) NE. Retrieved 2019/10/23 12:22 UTC (2 hours ago):

TAF KFPR 231120Z 2312/2412 32004KT P6SM FEW020 FM231300 02009KT P6SM SCT030 TEMPO 2313/2316 BKN030 FM231600 03010KT P6SM VCSH BKN035 FM240100 07006KT P6SM VCSH BKN035